sensor_id;sensor_type;location;lat;lon;timestamp;P1;P2;P0
84594;PMS5003;74832;51.656;5.298;2024-01-30T00:00:01;6.0;6.0;
84594;PMS5003;74832;51.656;5.298;2024-01-30T00:00:32;6.0;5.0;
84594;PMS5003;74832;51.656;5.298;2024-01-30T00:01:02;7.0;7.0;
84594;PMS5003;74832;51.656;5.298;2024-01-30T00:01:33;5.0;5.0;
84594;PMS5003;74832;51.656;5.298;2024-01-30T00:02:03;6.0;6.0;
84594;PMS5003;74832;51.656;5.298;2024-01-30T00:02:34;7.0;6.0;
84594;PMS5003;74832;51.656;5.298;2024-01-30T00:03:04;6.0;5.0;
84594;PMS5003;74832;51.656;5.298;2024-01-30T00:03:35;7.0;7.0;
84594;PMS5003;74832;51.656;5.298;2024-01-30T00:04:05;6.0;6.0;
84594;PMS5003;74832;51.656;5.298;2024-01-30T00:04:35;8.0;7.0;
84594;PMS5003;74832;51.656;5.298;2024-01-30T00:05:06;8.0;7.0;
84594;PMS5003;74832;51.656;5.298;2024-01-30T00:05:37;7.0;6.0;
84594;PMS5003;74832;51.656;5.298;2024-01-30T00:06:07;7.0;7.0;
84594;PMS5003;74832;51.656;5.298;2024-01-30T00:06:38;8.0;7.0;
84594;PMS5003;74832;51.656;5.298;2024-01-30T00:07:08;6.0;6.0;
84594;PMS5003;74832;51.656;5.298;2024-01-30T00:07:39;6.0;6.0;
84594;PMS5003;74832;51.656;5.298;2024-01-30T00:08:09;7.0;6.0;
84594;PMS5003;74832;51.656;5.298;2024-01-30T00:08:39;6.0;6.0;
84594;PMS5003;74832;51.656;5.298;2024-01-30T00:09:10;7.0;6.0;
84594;PMS5003;74832;51.656;5.298;2024-01-30T00:09:40;6.0;5.0;
84594;PMS5003;74832;51.656;5.298;2024-01-30T00:10:15;8.0;7.0;
84594;PMS5003;74832;51.656;5.298;2024-01-30T00:10:45;5.0;5.0;
84594;PMS5003;74832;51.656;5.298;2024-01-30T00:11:16;6.0;6.0;
84594;PMS5003;74832;51.656;5.298;2024-01-30T00:11:46;7.0;7.0;
84594;PMS5003;74832;51.656;5.298;2024-01-30T00:12:16;9.0;8.0;
84594;PMS5003;74832;51.656;5.298;2024-01-30T00:12:47;8.0;8.0;
84594;PMS5003;74832;51.656;5.298;2024-01-30T00:13:17;6.0;6.0;
84594;PMS5003;74832;51.656;5.298;2024-01-30T00:13:48;5.0;5.0;
84594;PMS5003;74832;51.656;5.298;2024-01-30T00:14:18;5.0;5.0;
84594;PMS5003;74832;51.656;5.298;2024-01-30T00:14:48;7.0;6.0;
84594;PMS5003;74832;51.656;5.298;2024-01-30T00:15:19;6.0;6.0;
84594;PMS5003;74832;51.656;5.298;2024-01-30T00:15:49;7.0;7.0;
84594;PMS5003;74832;51.656;5.298;2024-01-30T00:16:20;8.0;8.0;
84594;PMS5003;74832;51.656;5.298;2024-01-30T00:16:50;8.0;7.0;
84594;PMS5003;74832;51.656;5.298;2024-01-30T00:17:21;7.0;7.0;
84594;PMS5003;74832;51.656;5.298;2024-01-30T00:17:51;8.0;7.0;
84594;PMS5003;74832;51.656;5.298;2024-01-30T00:18:22;7.0;7.0;
84594;PMS5003;74832;51.656;5.298;2024-01-30T00:18:52;7.0;7.0;
84594;PMS5003;74832;51.656;5.298;2024-01-30T00:19:23;7.0;7.0;
84594;PMS5003;74832;51.656;5.298;2024-01-30T00:19:53;7.0;7.0;
84594;PMS5003;74832;51.656;5.298;2024-01-30T00:20:24;7.0;6.0;
84594;PMS5003;74832;51.656;5.298;2024-01-30T00:20:54;8.0;7.0;
84594;PMS5003;74832;51.656;5.298;2024-01-30T00:21:25;7.0;7.0;
84594;PMS5003;74832;51.656;5.298;2024-01-30T00:21:55;9.0;8.0;
84594;PMS5003;74832;51.656;5.298;2024-01-30T00:22:26;5.0;5.0;
84594;PMS5003;74832;51.656;5.298;2024-01-30T00:22:56;7.0;6.0;
84594;PMS5003;74832;51.656;5.298;2024-01-30T00:23:26;7.0;6.0;
84594;PMS5003;74832;51.656;5.298;2024-01-30T00:23:57;6.0;6.0;
84594;PMS5003;74832;51.656;5.298;2024-01-30T00:24:27;8.0;8.0;
84594;PMS5003;74832;51.656;5.298;2024-01-30T00:24:57;5.0;5.0;
84594;PMS5003;74832;51.656;5.298;2024-01-30T00:25:28;6.0;6.0;
84594;PMS5003;74832;51.656;5.298;2024-01-30T00:25:58;9.0;8.0;
84594;PMS5003;74832;51.656;5.298;2024-01-30T00:26:29;7.0;7.0;
84594;PMS5003;74832;51.656;5.298;2024-01-30T00:26:59;8.0;7.0;
84594;PMS5003;74832;51.656;5.298;2024-01-30T00:27:29;7.0;6.0;
84594;PMS5003;74832;51.656;5.298;2024-01-30T00:28:00;7.0;7.0;
84594;PMS5003;74832;51.656;5.298;2024-01-30T00:28:30;9.0;9.0;
84594;PMS5003;74832;51.656;5.298;2024-01-30T00:29:00;6.0;5.0;
84594;PMS5003;74832;51.656;5.298;2024-01-30T00:29:31;5.0;5.0;
84594;PMS5003;74832;51.656;5.298;2024-01-30T00:30:01;7.0;7.0;
84594;PMS5003;74832;51.656;5.298;2024-01-30T00:30:32;7.0;7.0;
84594;PMS5003;74832;51.656;5.298;2024-01-30T00:31:07;7.0;6.0;
84594;PMS5003;74832;51.656;5.298;2024-01-30T00:31:38;7.0;7.0;
84594;PMS5003;74832;51.656;5.298;2024-01-30T00:32:08;8.0;8.0;
84594;PMS5003;74832;51.656;5.298;2024-01-30T00:32:38;6.0;6.0;
84594;PMS5003;74832;51.656;5.298;2024-01-30T00:33:09;9.0;9.0;
84594;PMS5003;74832;51.656;5.298;2024-01-30T00:33:40;9.0;9.0;
84594;PMS5003;74832;51.656;5.298;2024-01-30T00:34:10;7.0;7.0;
84594;PMS5003;74832;51.656;5.298;2024-01-30T00:34:41;8.0;6.0;
84594;PMS5003;74832;51.656;5.298;2024-01-30T00:35:12;5.0;5.0;
84594;PMS5003;74832;51.656;5.298;2024-01-30T00:35:42;6.0;6.0;
84594;PMS5003;74832;51.656;5.298;2024-01-30T00:36:13;5.0;5.0;
84594;PMS5003;74832;51.656;5.298;2024-01-30T00:36:43;6.0;5.0;
84594;PMS5003;74832;51.656;5.298;2024-01-30T00:37:14;6.0;6.0;
84594;PMS5003;74832;51.656;5.298;2024-01-30T00:37:44;6.0;6.0;
84594;PMS5003;74832;51.656;5.298;2024-01-30T00:38:15;8.0;8.0;
84594;PMS5003;74832;51.656;5.298;2024-01-30T00:38:45;7.0;7.0;
84594;PMS5003;74832;51.656;5.298;2024-01-30T00:39:16;6.0;5.0;
84594;PMS5003;74832;51.656;5.298;2024-01-30T00:39:46;7.0;7.0;
84594;PMS5003;74832;51.656;5.298;2024-01-30T00:40:16;6.0;6.0;
84594;PMS5003;74832;51.656;5.298;2024-01-30T00:40:47;7.0;7.0;
84594;PMS5003;74832;51.656;5.298;2024-01-30T00:41:17;8.0;8.0;
84594;PMS5003;74832;51.656;5.298;2024-01-30T00:41:48;7.0;7.0;
84594;PMS5003;74832;51.656;5.298;2024-01-30T00:42:18;5.0;5.0;
84594;PMS5003;74832;51.656;5.298;2024-01-30T00:42:49;7.0;7.0;
84594;PMS5003;74832;51.656;5.298;2024-01-30T00:43:19;9.0;8.0;
84594;PMS5003;74832;51.656;5.298;2024-01-30T00:43:50;8.0;7.0;
84594;PMS5003;74832;51.656;5.298;2024-01-30T00:44:20;7.0;6.0;
84594;PMS5003;74832;51.656;5.298;2024-01-30T00:44:50;7.0;7.0;
84594;PMS5003;74832;51.656;5.298;2024-01-30T00:45:21;6.0;5.0;
84594;PMS5003;74832;51.656;5.298;2024-01-30T00:45:51;8.0;7.0;
84594;PMS5003;74832;51.656;5.298;2024-01-30T00:46:21;8.0;8.0;
84594;PMS5003;74832;51.656;5.298;2024-01-30T00:46:52;8.0;7.0;
84594;PMS5003;74832;51.656;5.298;2024-01-30T00:47:22;6.0;6.0;
84594;PMS5003;74832;51.656;5.298;2024-01-30T00:47:53;7.0;7.0;
84594;PMS5003;74832;51.656;5.298;2024-01-30T00:48:23;9.0;9.0;
84594;PMS5003;74832;51.656;5.298;2024-01-30T00:48:53;7.0;7.0;
84594;PMS5003;74832;51.656;5.298;2024-01-30T00:49:24;8.0;8.0;
84594;PMS5003;74832;51.656;5.298;2024-01-30T00:49:54;6.0;5.0;
84594;PMS5003;74832;51.656;5.298;2024-01-30T00:50:24;8.0;7.0;
84594;PMS5003;74832;51.656;5.298;2024-01-30T00:50:55;6.0;6.0;
84594;PMS5003;74832;51.656;5.298;2024-01-30T00:51:25;7.0;6.0;
84594;PMS5003;74832;51.656;5.298;2024-01-30T00:51:56;7.0;7.0;
84594;PMS5003;74832;51.656;5.298;2024-01-30T00:52:26;7.0;7.0;
84594;PMS5003;74832;51.656;5.298;2024-01-30T00:52:56;8.0;8.0;
84594;PMS5003;74832;51.656;5.298;2024-01-30T00:53:27;6.0;6.0;
84594;PMS5003;74832;51.656;5.298;2024-01-30T00:53:57;8.0;8.0;
84594;PMS5003;74832;51.656;5.298;2024-01-30T00:54:28;7.0;7.0;
84594;PMS5003;74832;51.656;5.298;2024-01-30T00:54:58;7.0;6.0;
84594;PMS5003;74832;51.656;5.298;2024-01-30T00:55:28;6.0;6.0;
84594;PMS5003;74832;51.656;5.298;2024-01-30T00:55:59;9.0;7.0;
84594;PMS5003;74832;51.656;5.298;2024-01-30T00:56:29;7.0;7.0;
84594;PMS5003;74832;51.656;5.298;2024-01-30T00:56:59;8.0;7.0;
84594;PMS5003;74832;51.656;5.298;2024-01-30T00:57:30;7.0;7.0;
84594;PMS5003;74832;51.656;5.298;2024-01-30T00:58:00;9.0;9.0;
84594;PMS5003;74832;51.656;5.298;2024-01-30T00:58:31;8.0;7.0;
84594;PMS5003;74832;51.656;5.298;2024-01-30T00:59:01;6.0;6.0;
84594;PMS5003;74832;51.656;5.298;2024-01-30T00:59:31;5.0;5.0;
84594;PMS5003;74832;51.656;5.298;2024-01-30T01:00:02;6.0;6.0;
84594;PMS5003;74832;51.656;5.298;2024-01-30T01:00:33;6.0;6.0;
84594;PMS5003;74832;51.656;5.298;2024-01-30T01:01:03;7.0;7.0;
84594;PMS5003;74832;51.656;5.298;2024-01-30T01:01:34;7.0;6.0;
84594;PMS5003;74832;51.656;5.298;2024-01-30T01:02:04;10.0;9.0;
84594;PMS5003;74832;51.656;5.298;2024-01-30T01:02:34;7.0;7.0;
84594;PMS5003;74832;51.656;5.298;2024-01-30T01:03:05;6.0;6.0;
84594;PMS5003;74832;51.656;5.298;2024-01-30T01:03:36;7.0;6.0;
84594;PMS5003;74832;51.656;5.298;2024-01-30T01:04:06;6.0;6.0;
84594;PMS5003;74832;51.656;5.298;2024-01-30T01:04:37;8.0;7.0;
84594;PMS5003;74832;51.656;5.298;2024-01-30T01:05:07;8.0;8.0;
84594;PMS5003;74832;51.656;5.298;2024-01-30T01:05:38;8.0;7.0;
84594;PMS5003;74832;51.656;5.298;2024-01-30T01:06:08;8.0;6.0;
84594;PMS5003;74832;51.656;5.298;2024-01-30T01:06:39;8.0;7.0;
84594;PMS5003;74832;51.656;5.298;2024-01-30T01:07:09;7.0;7.0;
84594;PMS5003;74832;51.656;5.298;2024-01-30T01:07:40;6.0;6.0;
84594;PMS5003;74832;51.656;5.298;2024-01-30T01:08:10;7.0;7.0;
84594;PMS5003;74832;51.656;5.298;2024-01-30T01:08:41;8.0;8.0;
84594;PMS5003;74832;51.656;5.298;2024-01-30T01:09:11;7.0;6.0;
84594;PMS5003;74832;51.656;5.298;2024-01-30T01:09:41;3.0;3.0;
84594;PMS5003;74832;51.656;5.298;2024-01-30T01:10:12;7.0;6.0;
84594;PMS5003;74832;51.656;5.298;2024-01-30T01:10:42;8.0;7.0;
84594;PMS5003;74832;51.656;5.298;2024-01-30T01:11:13;5.0;5.0;
84594;PMS5003;74832;51.656;5.298;2024-01-30T01:11:43;6.0;6.0;
84594;PMS5003;74832;51.656;5.298;2024-01-30T01:12:14;5.0;5.0;
84594;PMS5003;74832;51.656;5.298;2024-01-30T01:12:44;7.0;6.0;
84594;PMS5003;74832;51.656;5.298;2024-01-30T01:13:15;7.0;7.0;
84594;PMS5003;74832;51.656;5.298;2024-01-30T01:13:46;6.0;6.0;
84594;PMS5003;74832;51.656;5.298;2024-01-30T01:14:16;9.0;8.0;
84594;PMS5003;74832;51.656;5.298;2024-01-30T01:14:46;8.0;7.0;
84594;PMS5003;74832;51.656;5.298;2024-01-30T01:15:17;5.0;5.0;
84594;PMS5003;74832;51.656;5.298;2024-01-30T01:15:47;7.0;7.0;
84594;PMS5003;74832;51.656;5.298;2024-01-30T01:16:18;7.0;7.0;
84594;PMS5003;74832;51.656;5.298;2024-01-30T01:16:48;8.0;6.0;
84594;PMS5003;74832;51.656;5.298;2024-01-30T01:17:18;7.0;6.0;
84594;PMS5003;74832;51.656;5.298;2024-01-30T01:17:49;6.0;6.0;
84594;PMS5003;74832;51.656;5.298;2024-01-30T01:18:19;7.0;7.0;
84594;PMS5003;74832;51.656;5.298;2024-01-30T01:18:50;6.0;6.0;
84594;PMS5003;74832;51.656;5.298;2024-01-30T01:19:20;6.0;5.0;
84594;PMS5003;74832;51.656;5.298;2024-01-30T01:19:51;10.0;10.0;
84594;PMS5003;74832;51.656;5.298;2024-01-30T01:20:21;6.0;6.0;
84594;PMS5003;74832;51.656;5.298;2024-01-30T01:20:51;9.0;7.0;
84594;PMS5003;74832;51.656;5.298;2024-01-30T01:21:22;8.0;8.0;
84594;PMS5003;74832;51.656;5.298;2024-01-30T01:21:52;7.0;7.0;
84594;PMS5003;74832;51.656;5.298;2024-01-30T01:22:23;8.0;8.0;
84594;PMS5003;74832;51.656;5.298;2024-01-30T01:22:53;9.0;9.0;
84594;PMS5003;74832;51.656;5.298;2024-01-30T01:23:23;8.0;7.0;
84594;PMS5003;74832;51.656;5.298;2024-01-30T01:23:54;6.0;6.0;
84594;PMS5003;74832;51.656;5.298;2024-01-30T01:24:24;7.0;7.0;
84594;PMS5003;74832;51.656;5.298;2024-01-30T01:24:54;9.0;7.0;
84594;PMS5003;74832;51.656;5.298;2024-01-30T01:25:25;6.0;5.0;
84594;PMS5003;74832;51.656;5.298;2024-01-30T01:25:55;5.0;5.0;
84594;PMS5003;74832;51.656;5.298;2024-01-30T01:26:26;6.0;6.0;
84594;PMS5003;74832;51.656;5.298;2024-01-30T01:26:56;6.0;6.0;
84594;PMS5003;74832;51.656;5.298;2024-01-30T01:27:27;7.0;6.0;
84594;PMS5003;74832;51.656;5.298;2024-01-30T01:27:58;9.0;8.0;
84594;PMS5003;74832;51.656;5.298;2024-01-30T01:28:28;7.0;7.0;
84594;PMS5003;74832;51.656;5.298;2024-01-30T01:28:58;9.0;8.0;
84594;PMS5003;74832;51.656;5.298;2024-01-30T01:29:29;9.0;8.0;
84594;PMS5003;74832;51.656;5.298;2024-01-30T01:29:59;9.0;8.0;
84594;PMS5003;74832;51.656;5.298;2024-01-30T01:30:30;6.0;6.0;
84594;PMS5003;74832;51.656;5.298;2024-01-30T01:31:00;9.0;8.0;
84594;PMS5003;74832;51.656;5.298;2024-01-30T01:31:31;9.0;8.0;
84594;PMS5003;74832;51.656;5.298;2024-01-30T01:32:01;7.0;7.0;
84594;PMS5003;74832;51.656;5.298;2024-01-30T01:32:32;7.0;7.0;
84594;PMS5003;74832;51.656;5.298;2024-01-30T01:33:02;8.0;8.0;
84594;PMS5003;74832;51.656;5.298;2024-01-30T01:33:33;6.0;6.0;
84594;PMS5003;74832;51.656;5.298;2024-01-30T01:34:03;7.0;7.0;
84594;PMS5003;74832;51.656;5.298;2024-01-30T01:34:34;8.0;8.0;
84594;PMS5003;74832;51.656;5.298;2024-01-30T01:35:04;12.0;9.0;
84594;PMS5003;74832;51.656;5.298;2024-01-30T01:35:35;8.0;7.0;
84594;PMS5003;74832;51.656;5.298;2024-01-30T01:36:05;8.0;8.0;
84594;PMS5003;74832;51.656;5.298;2024-01-30T01:36:36;7.0;6.0;
84594;PMS5003;74832;51.656;5.298;2024-01-30T01:37:06;8.0;8.0;
84594;PMS5003;74832;51.656;5.298;2024-01-30T01:37:37;8.0;8.0;
84594;PMS5003;74832;51.656;5.298;2024-01-30T01:38:07;6.0;6.0;
84594;PMS5003;74832;51.656;5.298;2024-01-30T01:38:38;7.0;7.0;
84594;PMS5003;74832;51.656;5.298;2024-01-30T01:39:08;6.0;6.0;
84594;PMS5003;74832;51.656;5.298;2024-01-30T01:39:38;6.0;6.0;
84594;PMS5003;74832;51.656;5.298;2024-01-30T01:40:09;6.0;6.0;
84594;PMS5003;74832;51.656;5.298;2024-01-30T01:40:40;9.0;7.0;
84594;PMS5003;74832;51.656;5.298;2024-01-30T01:41:10;10.0;9.0;
84594;PMS5003;74832;51.656;5.298;2024-01-30T01:41:40;8.0;8.0;
84594;PMS5003;74832;51.656;5.298;2024-01-30T01:42:11;7.0;6.0;
84594;PMS5003;74832;51.656;5.298;2024-01-30T01:42:41;9.0;7.0;
84594;PMS5003;74832;51.656;5.298;2024-01-30T01:43:12;7.0;6.0;
84594;PMS5003;74832;51.656;5.298;2024-01-30T01:43:42;9.0;8.0;
84594;PMS5003;74832;51.656;5.298;2024-01-30T01:44:12;7.0;7.0;
84594;PMS5003;74832;51.656;5.298;2024-01-30T01:44:43;7.0;7.0;
84594;PMS5003;74832;51.656;5.298;2024-01-30T01:45:13;8.0;8.0;
84594;PMS5003;74832;51.656;5.298;2024-01-30T01:45:44;8.0;7.0;
84594;PMS5003;74832;51.656;5.298;2024-01-30T01:46:15;7.0;7.0;
84594;PMS5003;74832;51.656;5.298;2024-01-30T01:46:45;7.0;6.0;
84594;PMS5003;74832;51.656;5.298;2024-01-30T01:47:16;7.0;7.0;
84594;PMS5003;74832;51.656;5.298;2024-01-30T01:47:47;6.0;6.0;
84594;PMS5003;74832;51.656;5.298;2024-01-30T01:48:20;8.0;8.0;
84594;PMS5003;74832;51.656;5.298;2024-01-30T01:48:51;8.0;8.0;
84594;PMS5003;74832;51.656;5.298;2024-01-30T01:49:22;7.0;7.0;
84594;PMS5003;74832;51.656;5.298;2024-01-30T01:49:54;6.0;6.0;
84594;PMS5003;74832;51.656;5.298;2024-01-30T01:50:25;8.0;8.0;
84594;PMS5003;74832;51.656;5.298;2024-01-30T01:50:55;8.0;7.0;
84594;PMS5003;74832;51.656;5.298;2024-01-30T01:51:27;8.0;8.0;
84594;PMS5003;74832;51.656;5.298;2024-01-30T01:51:59;7.0;7.0;
84594;PMS5003;74832;51.656;5.298;2024-01-30T01:52:30;7.0;7.0;
84594;PMS5003;74832;51.656;5.298;2024-01-30T01:53:01;9.0;8.0;
84594;PMS5003;74832;51.656;5.298;2024-01-30T01:53:32;9.0;8.0;
84594;PMS5003;74832;51.656;5.298;2024-01-30T01:54:03;9.0;7.0;
84594;PMS5003;74832;51.656;5.298;2024-01-30T01:54:34;8.0;8.0;
84594;PMS5003;74832;51.656;5.298;2024-01-30T01:55:05;9.0;9.0;
84594;PMS5003;74832;51.656;5.298;2024-01-30T01:55:36;7.0;7.0;
84594;PMS5003;74832;51.656;5.298;2024-01-30T01:56:07;7.0;7.0;
84594;PMS5003;74832;51.656;5.298;2024-01-30T01:56:38;8.0;8.0;
84594;PMS5003;74832;51.656;5.298;2024-01-30T01:57:09;7.0;7.0;
84594;PMS5003;74832;51.656;5.298;2024-01-30T01:57:40;6.0;6.0;
84594;PMS5003;74832;51.656;5.298;2024-01-30T01:58:11;5.0;5.0;
84594;PMS5003;74832;51.656;5.298;2024-01-30T01:58:43;6.0;6.0;
84594;PMS5003;74832;51.656;5.298;2024-01-30T01:59:16;7.0;7.0;
84594;PMS5003;74832;51.656;5.298;2024-01-30T01:59:48;9.0;8.0;
84594;PMS5003;74832;51.656;5.298;2024-01-30T02:00:18;7.0;7.0;
84594;PMS5003;74832;51.656;5.298;2024-01-30T02:00:50;10.0;9.0;
84594;PMS5003;74832;51.656;5.298;2024-01-30T02:01:21;8.0;7.0;
84594;PMS5003;74832;51.656;5.298;2024-01-30T02:01:54;9.0;8.0;
84594;PMS5003;74832;51.656;5.298;2024-01-30T02:02:25;8.0;8.0;
84594;PMS5003;74832;51.656;5.298;2024-01-30T02:03:00;10.0;9.0;
84594;PMS5003;74832;51.656;5.298;2024-01-30T02:03:30;8.0;8.0;
84594;PMS5003;74832;51.656;5.298;2024-01-30T02:04:01;8.0;8.0;
84594;PMS5003;74832;51.656;5.298;2024-01-30T02:04:31;8.0;8.0;
84594;PMS5003;74832;51.656;5.298;2024-01-30T02:05:01;7.0;7.0;
84594;PMS5003;74832;51.656;5.298;2024-01-30T02:05:32;9.0;8.0;
84594;PMS5003;74832;51.656;5.298;2024-01-30T02:06:02;9.0;8.0;
84594;PMS5003;74832;51.656;5.298;2024-01-30T02:06:34;9.0;8.0;
84594;PMS5003;74832;51.656;5.298;2024-01-30T02:07:05;8.0;8.0;
84594;PMS5003;74832;51.656;5.298;2024-01-30T02:07:35;11.0;10.0;
84594;PMS5003;74832;51.656;5.298;2024-01-30T02:08:06;9.0;8.0;
84594;PMS5003;74832;51.656;5.298;2024-01-30T02:08:36;9.0;8.0;
84594;PMS5003;74832;51.656;5.298;2024-01-30T02:09:07;10.0;10.0;
84594;PMS5003;74832;51.656;5.298;2024-01-30T02:09:37;9.0;8.0;
84594;PMS5003;74832;51.656;5.298;2024-01-30T02:10:08;9.0;8.0;
84594;PMS5003;74832;51.656;5.298;2024-01-30T02:10:39;10.0;10.0;
84594;PMS5003;74832;51.656;5.298;2024-01-30T02:11:09;9.0;9.0;
84594;PMS5003;74832;51.656;5.298;2024-01-30T02:11:40;10.0;9.0;
84594;PMS5003;74832;51.656;5.298;2024-01-30T02:12:11;10.0;9.0;
84594;PMS5003;74832;51.656;5.298;2024-01-30T02:12:41;12.0;11.0;
84594;PMS5003;74832;51.656;5.298;2024-01-30T02:13:12;9.0;9.0;
84594;PMS5003;74832;51.656;5.298;2024-01-30T02:13:42;11.0;10.0;
84594;PMS5003;74832;51.656;5.298;2024-01-30T02:14:13;10.0;9.0;
84594;PMS5003;74832;51.656;5.298;2024-01-30T02:14:44;8.0;8.0;
84594;PMS5003;74832;51.656;5.298;2024-01-30T02:15:15;8.0;8.0;
84594;PMS5003;74832;51.656;5.298;2024-01-30T02:15:48;6.0;6.0;
84594;PMS5003;74832;51.656;5.298;2024-01-30T02:16:19;10.0;9.0;
84594;PMS5003;74832;51.656;5.298;2024-01-30T02:16:49;10.0;8.0;
84594;PMS5003;74832;51.656;5.298;2024-01-30T02:17:20;10.0;9.0;
84594;PMS5003;74832;51.656;5.298;2024-01-30T02:17:50;9.0;9.0;
84594;PMS5003;74832;51.656;5.298;2024-01-30T02:18:22;11.0;11.0;
84594;PMS5003;74832;51.656;5.298;2024-01-30T02:18:52;13.0;10.0;
84594;PMS5003;74832;51.656;5.298;2024-01-30T02:19:23;10.0;9.0;
84594;PMS5003;74832;51.656;5.298;2024-01-30T02:19:53;11.0;11.0;
84594;PMS5003;74832;51.656;5.298;2024-01-30T02:20:24;9.0;8.0;
84594;PMS5003;74832;51.656;5.298;2024-01-30T02:20:56;11.0;9.0;
84594;PMS5003;74832;51.656;5.298;2024-01-30T02:21:28;8.0;8.0;
84594;PMS5003;74832;51.656;5.298;2024-01-30T02:21:58;9.0;8.0;
84594;PMS5003;74832;51.656;5.298;2024-01-30T02:22:28;11.0;11.0;
84594;PMS5003;74832;51.656;5.298;2024-01-30T02:22:59;9.0;9.0;
84594;PMS5003;74832;51.656;5.298;2024-01-30T02:23:31;12.0;11.0;
84594;PMS5003;74832;51.656;5.298;2024-01-30T02:24:04;11.0;11.0;
84594;PMS5003;74832;51.656;5.298;2024-01-30T02:24:35;10.0;10.0;
84594;PMS5003;74832;51.656;5.298;2024-01-30T02:25:06;10.0;9.0;
84594;PMS5003;74832;51.656;5.298;2024-01-30T02:25:38;10.0;9.0;
84594;PMS5003;74832;51.656;5.298;2024-01-30T02:26:10;11.0;11.0;
84594;PMS5003;74832;51.656;5.298;2024-01-30T02:26:40;8.0;8.0;
84594;PMS5003;74832;51.656;5.298;2024-01-30T02:27:10;12.0;11.0;
84594;PMS5003;74832;51.656;5.298;2024-01-30T02:27:41;11.0;11.0;
84594;PMS5003;74832;51.656;5.298;2024-01-30T02:28:11;12.0;10.0;
84594;PMS5003;74832;51.656;5.298;2024-01-30T02:28:42;10.0;10.0;
84594;PMS5003;74832;51.656;5.298;2024-01-30T02:29:12;10.0;10.0;
84594;PMS5003;74832;51.656;5.298;2024-01-30T02:29:43;10.0;10.0;
84594;PMS5003;74832;51.656;5.298;2024-01-30T02:30:13;14.0;11.0;
84594;PMS5003;74832;51.656;5.298;2024-01-30T02:30:44;9.0;8.0;
84594;PMS5003;74832;51.656;5.298;2024-01-30T02:31:15;10.0;9.0;
84594;PMS5003;74832;51.656;5.298;2024-01-30T02:31:45;12.0;9.0;
84594;PMS5003;74832;51.656;5.298;2024-01-30T02:32:15;9.0;9.0;
84594;PMS5003;74832;51.656;5.298;2024-01-30T02:32:46;12.0;11.0;
84594;PMS5003;74832;51.656;5.298;2024-01-30T02:33:16;12.0;11.0;
84594;PMS5003;74832;51.656;5.298;2024-01-30T02:33:47;10.0;10.0;
84594;PMS5003;74832;51.656;5.298;2024-01-30T02:34:18;7.0;7.0;
84594;PMS5003;74832;51.656;5.298;2024-01-30T02:34:49;12.0;12.0;
84594;PMS5003;74832;51.656;5.298;2024-01-30T02:35:19;13.0;11.0;
84594;PMS5003;74832;51.656;5.298;2024-01-30T02:35:50;12.0;10.0;
84594;PMS5003;74832;51.656;5.298;2024-01-30T02:36:20;11.0;11.0;
84594;PMS5003;74832;51.656;5.298;2024-01-30T02:36:50;11.0;11.0;
84594;PMS5003;74832;51.656;5.298;2024-01-30T02:37:21;10.0;10.0;
84594;PMS5003;74832;51.656;5.298;2024-01-30T02:37:51;12.0;11.0;
84594;PMS5003;74832;51.656;5.298;2024-01-30T02:38:22;11.0;10.0;
84594;PMS5003;74832;51.656;5.298;2024-01-30T02:38:52;10.0;10.0;
84594;PMS5003;74832;51.656;5.298;2024-01-30T02:39:23;9.0;9.0;
84594;PMS5003;74832;51.656;5.298;2024-01-30T02:39:53;14.0;12.0;
84594;PMS5003;74832;51.656;5.298;2024-01-30T02:40:23;12.0;12.0;
84594;PMS5003;74832;51.656;5.298;2024-01-30T02:40:54;11.0;10.0;
84594;PMS5003;74832;51.656;5.298;2024-01-30T02:41:24;13.0;13.0;
84594;PMS5003;74832;51.656;5.298;2024-01-30T02:41:55;12.0;11.0;
84594;PMS5003;74832;51.656;5.298;2024-01-30T02:42:25;13.0;12.0;
84594;PMS5003;74832;51.656;5.298;2024-01-30T02:42:56;11.0;11.0;
84594;PMS5003;74832;51.656;5.298;2024-01-30T02:43:26;10.0;10.0;
84594;PMS5003;74832;51.656;5.298;2024-01-30T02:43:57;12.0;11.0;
84594;PMS5003;74832;51.656;5.298;2024-01-30T02:44:27;11.0;11.0;
84594;PMS5003;74832;51.656;5.298;2024-01-30T02:44:57;13.0;13.0;
84594;PMS5003;74832;51.656;5.298;2024-01-30T02:45:28;10.0;10.0;
84594;PMS5003;74832;51.656;5.298;2024-01-30T02:45:59;10.0;10.0;
84594;PMS5003;74832;51.656;5.298;2024-01-30T02:46:29;12.0;12.0;
84594;PMS5003;74832;51.656;5.298;2024-01-30T02:47:00;9.0;8.0;
84594;PMS5003;74832;51.656;5.298;2024-01-30T02:47:30;12.0;10.0;
84594;PMS5003;74832;51.656;5.298;2024-01-30T02:48:00;11.0;11.0;
84594;PMS5003;74832;51.656;5.298;2024-01-30T02:48:31;14.0;12.0;
84594;PMS5003;74832;51.656;5.298;2024-01-30T02:49:01;13.0;11.0;
84594;PMS5003;74832;51.656;5.298;2024-01-30T02:49:31;17.0;13.0;
84594;PMS5003;74832;51.656;5.298;2024-01-30T02:50:02;13.0;13.0;
84594;PMS5003;74832;51.656;5.298;2024-01-30T02:50:33;12.0;12.0;
84594;PMS5003;74832;51.656;5.298;2024-01-30T02:51:03;14.0;14.0;
84594;PMS5003;74832;51.656;5.298;2024-01-30T02:51:34;11.0;10.0;
84594;PMS5003;74832;51.656;5.298;2024-01-30T02:52:04;12.0;12.0;
84594;PMS5003;74832;51.656;5.298;2024-01-30T02:52:35;16.0;13.0;
84594;PMS5003;74832;51.656;5.298;2024-01-30T02:53:05;10.0;10.0;
84594;PMS5003;74832;51.656;5.298;2024-01-30T02:53:36;13.0;11.0;
84594;PMS5003;74832;51.656;5.298;2024-01-30T02:54:06;14.0;12.0;
84594;PMS5003;74832;51.656;5.298;2024-01-30T02:54:37;12.0;12.0;
84594;PMS5003;74832;51.656;5.298;2024-01-30T02:55:07;10.0;10.0;
84594;PMS5003;74832;51.656;5.298;2024-01-30T02:55:38;12.0;11.0;
84594;PMS5003;74832;51.656;5.298;2024-01-30T02:56:08;15.0;13.0;
84594;PMS5003;74832;51.656;5.298;2024-01-30T02:56:38;15.0;15.0;
84594;PMS5003;74832;51.656;5.298;2024-01-30T02:57:09;13.0;12.0;
84594;PMS5003;74832;51.656;5.298;2024-01-30T02:57:39;11.0;10.0;
84594;PMS5003;74832;51.656;5.298;2024-01-30T02:58:09;11.0;11.0;
84594;PMS5003;74832;51.656;5.298;2024-01-30T02:58:40;15.0;14.0;
84594;PMS5003;74832;51.656;5.298;2024-01-30T02:59:10;14.0;11.0;
84594;PMS5003;74832;51.656;5.298;2024-01-30T02:59:41;11.0;11.0;
84594;PMS5003;74832;51.656;5.298;2024-01-30T03:00:12;11.0;10.0;
84594;PMS5003;74832;51.656;5.298;2024-01-30T03:00:43;10.0;10.0;
84594;PMS5003;74832;51.656;5.298;2024-01-30T03:01:14;10.0;10.0;
84594;PMS5003;74832;51.656;5.298;2024-01-30T03:01:44;14.0;12.0;
84594;PMS5003;74832;51.656;5.298;2024-01-30T03:02:15;13.0;10.0;
84594;PMS5003;74832;51.656;5.298;2024-01-30T03:02:45;12.0;12.0;
84594;PMS5003;74832;51.656;5.298;2024-01-30T03:03:16;9.0;9.0;
84594;PMS5003;74832;51.656;5.298;2024-01-30T03:03:46;10.0;10.0;
84594;PMS5003;74832;51.656;5.298;2024-01-30T03:04:17;13.0;13.0;
84594;PMS5003;74832;51.656;5.298;2024-01-30T03:04:47;11.0;10.0;
84594;PMS5003;74832;51.656;5.298;2024-01-30T03:05:17;12.0;12.0;
84594;PMS5003;74832;51.656;5.298;2024-01-30T03:05:48;13.0;11.0;
84594;PMS5003;74832;51.656;5.298;2024-01-30T03:06:19;12.0;11.0;
84594;PMS5003;74832;51.656;5.298;2024-01-30T03:06:49;10.0;10.0;
84594;PMS5003;74832;51.656;5.298;2024-01-30T03:07:19;12.0;11.0;
84594;PMS5003;74832;51.656;5.298;2024-01-30T03:07:50;15.0;15.0;
84594;PMS5003;74832;51.656;5.298;2024-01-30T03:08:20;13.0;13.0;
84594;PMS5003;74832;51.656;5.298;2024-01-30T03:08:51;12.0;11.0;
84594;PMS5003;74832;51.656;5.298;2024-01-30T03:09:21;11.0;11.0;
84594;PMS5003;74832;51.656;5.298;2024-01-30T03:09:52;13.0;13.0;
84594;PMS5003;74832;51.656;5.298;2024-01-30T03:10:22;13.0;11.0;
84594;PMS5003;74832;51.656;5.298;2024-01-30T03:10:53;10.0;10.0;
84594;PMS5003;74832;51.656;5.298;2024-01-30T03:11:23;10.0;10.0;
84594;PMS5003;74832;51.656;5.298;2024-01-30T03:11:53;12.0;11.0;
84594;PMS5003;74832;51.656;5.298;2024-01-30T03:12:24;14.0;13.0;
84594;PMS5003;74832;51.656;5.298;2024-01-30T03:12:54;12.0;12.0;
84594;PMS5003;74832;51.656;5.298;2024-01-30T03:13:25;12.0;12.0;
84594;PMS5003;74832;51.656;5.298;2024-01-30T03:13:55;12.0;12.0;
84594;PMS5003;74832;51.656;5.298;2024-01-30T03:14:26;13.0;11.0;